sensor_id;sensor_type;location;lat;lon;timestamp;temperature;humidity
31733;DHT22;18312;51.486;7.144;2023-07-31T00:01:09;15.70;99.90
31733;DHT22;18312;51.486;7.144;2023-07-31T00:03:36;15.80;99.90
31733;DHT22;18312;51.486;7.144;2023-07-31T00:06:03;15.70;99.90
31733;DHT22;18312;51.486;7.144;2023-07-31T00:08:30;15.80;99.90
31733;DHT22;18312;51.486;7.144;2023-07-31T00:10:58;15.70;99.90
31733;DHT22;18312;51.486;7.144;2023-07-31T00:13:24;15.80;99.90
31733;DHT22;18312;51.486;7.144;2023-07-31T00:15:51;15.70;99.90
31733;DHT22;18312;51.486;7.144;2023-07-31T00:18:18;15.80;99.90
31733;DHT22;18312;51.486;7.144;2023-07-31T00:20:45;15.70;99.90
31733;DHT22;18312;51.486;7.144;2023-07-31T00:23:11;15.80;99.90
31733;DHT22;18312;51.486;7.144;2023-07-31T00:25:38;15.70;99.90
31733;DHT22;18312;51.486;7.144;2023-07-31T00:28:07;15.70;99.90
31733;DHT22;18312;51.486;7.144;2023-07-31T00:30:33;15.70;99.90
31733;DHT22;18312;51.486;7.144;2023-07-31T00:33:00;15.70;99.90
31733;DHT22;18312;51.486;7.144;2023-07-31T00:35:27;15.70;99.90
31733;DHT22;18312;51.486;7.144;2023-07-31T00:37:53;15.70;99.90
31733;DHT22;18312;51.486;7.144;2023-07-31T00:40:20;15.80;99.90
31733;DHT22;18312;51.486;7.144;2023-07-31T00:42:47;15.80;99.90
31733;DHT22;18312;51.486;7.144;2023-07-31T00:45:15;15.80;99.90
31733;DHT22;18312;51.486;7.144;2023-07-31T00:47:42;15.90;99.90
31733;DHT22;18312;51.486;7.144;2023-07-31T00:50:09;15.90;99.90
31733;DHT22;18312;51.486;7.144;2023-07-31T00:52:36;16.00;99.90
31733;DHT22;18312;51.486;7.144;2023-07-31T00:55:03;15.90;99.90
31733;DHT22;18312;51.486;7.144;2023-07-31T00:57:32;16.00;99.90
31733;DHT22;18312;51.486;7.144;2023-07-31T01:00:00;16.00;99.90
31733;DHT22;18312;51.486;7.144;2023-07-31T01:02:28;16.00;99.90
31733;DHT22;18312;51.486;7.144;2023-07-31T01:04:54;16.00;99.90
31733;DHT22;18312;51.486;7.144;2023-07-31T01:07:25;16.10;99.90
31733;DHT22;18312;51.486;7.144;2023-07-31T01:10:02;16.10;99.90
31733;DHT22;18312;51.486;7.144;2023-07-31T01:12:31;16.10;99.90
31733;DHT22;18312;51.486;7.144;2023-07-31T01:15:05;16.10;99.90
31733;DHT22;18312;51.486;7.144;2023-07-31T01:17:33;16.10;99.90
31733;DHT22;18312;51.486;7.144;2023-07-31T01:20:02;16.10;99.90
31733;DHT22;18312;51.486;7.144;2023-07-31T01:22:39;16.10;99.90
31733;DHT22;18312;51.486;7.144;2023-07-31T01:25:18;16.10;99.90
31733;DHT22;18312;51.486;7.144;2023-07-31T01:27:55;16.10;99.90
31733;DHT22;18312;51.486;7.144;2023-07-31T01:30:27;16.10;99.90
31733;DHT22;18312;51.486;7.144;2023-07-31T01:32:56;16.10;99.90
31733;DHT22;18312;51.486;7.144;2023-07-31T01:35:24;16.10;99.90
31733;DHT22;18312;51.486;7.144;2023-07-31T01:37:52;16.10;99.90
31733;DHT22;18312;51.486;7.144;2023-07-31T01:40:19;16.10;99.90
31733;DHT22;18312;51.486;7.144;2023-07-31T01:42:46;16.10;99.90
31733;DHT22;18312;51.486;7.144;2023-07-31T01:45:14;16.10;99.90
31733;DHT22;18312;51.486;7.144;2023-07-31T01:47:41;16.10;99.90
31733;DHT22;18312;51.486;7.144;2023-07-31T01:50:08;16.10;99.90
31733;DHT22;18312;51.486;7.144;2023-07-31T01:52:35;16.10;99.90
31733;DHT22;18312;51.486;7.144;2023-07-31T01:55:02;16.00;99.90
31733;DHT22;18312;51.486;7.144;2023-07-31T01:57:29;16.10;99.90
31733;DHT22;18312;51.486;7.144;2023-07-31T01:59:56;16.00;99.90
31733;DHT22;18312;51.486;7.144;2023-07-31T02:02:24;16.00;99.90
31733;DHT22;18312;51.486;7.144;2023-07-31T02:04:50;16.00;99.90
31733;DHT22;18312;51.486;7.144;2023-07-31T02:07:17;16.00;99.90
31733;DHT22;18312;51.486;7.144;2023-07-31T02:09:44;16.00;99.90
31733;DHT22;18312;51.486;7.144;2023-07-31T02:12:12;16.00;99.90
31733;DHT22;18312;51.486;7.144;2023-07-31T02:14:39;16.00;99.90
31733;DHT22;18312;51.486;7.144;2023-07-31T02:17:06;16.00;99.90
31733;DHT22;18312;51.486;7.144;2023-07-31T02:19:34;16.00;99.90
31733;DHT22;18312;51.486;7.144;2023-07-31T02:22:01;16.00;99.90
31733;DHT22;18312;51.486;7.144;2023-07-31T02:24:28;16.00;99.90
31733;DHT22;18312;51.486;7.144;2023-07-31T02:26:55;16.00;99.90
31733;DHT22;18312;51.486;7.144;2023-07-31T02:29:21;16.00;99.90
31733;DHT22;18312;51.486;7.144;2023-07-31T02:31:48;16.00;99.90
31733;DHT22;18312;51.486;7.144;2023-07-31T02:34:15;16.00;99.90
31733;DHT22;18312;51.486;7.144;2023-07-31T02:36:43;16.00;99.90
31733;DHT22;18312;51.486;7.144;2023-07-31T02:39:09;16.10;99.90
31733;DHT22;18312;51.486;7.144;2023-07-31T02:41:36;16.00;99.90
31733;DHT22;18312;51.486;7.144;2023-07-31T02:44:03;16.00;99.90
31733;DHT22;18312;51.486;7.144;2023-07-31T02:46:30;16.00;99.90
31733;DHT22;18312;51.486;7.144;2023-07-31T02:48:57;16.00;99.90
31733;DHT22;18312;51.486;7.144;2023-07-31T02:51:23;16.00;99.90
31733;DHT22;18312;51.486;7.144;2023-07-31T02:53:52;16.00;99.90
31733;DHT22;18312;51.486;7.144;2023-07-31T02:56:18;16.00;99.90
31733;DHT22;18312;51.486;7.144;2023-07-31T02:58:45;15.90;99.90
31733;DHT22;18312;51.486;7.144;2023-07-31T03:01:12;15.90;99.90
31733;DHT22;18312;51.486;7.144;2023-07-31T03:03:38;16.00;99.90
31733;DHT22;18312;51.486;7.144;2023-07-31T03:06:05;16.00;99.90
31733;DHT22;18312;51.486;7.144;2023-07-31T03:08:32;15.90;99.90
31733;DHT22;18312;51.486;7.144;2023-07-31T03:11:00;16.00;99.90
31733;DHT22;18312;51.486;7.144;2023-07-31T03:13:27;16.00;99.90
31733;DHT22;18312;51.486;7.144;2023-07-31T03:15:53;15.90;99.90
31733;DHT22;18312;51.486;7.144;2023-07-31T03:18:20;15.90;99.90
31733;DHT22;18312;51.486;7.144;2023-07-31T03:20:47;15.90;99.90
31733;DHT22;18312;51.486;7.144;2023-07-31T03:23:13;16.00;99.90
31733;DHT22;18312;51.486;7.144;2023-07-31T03:25:52;16.00;99.90
31733;DHT22;18312;51.486;7.144;2023-07-31T03:28:22;16.00;99.90
31733;DHT22;18312;51.486;7.144;2023-07-31T03:30:49;16.00;99.90
31733;DHT22;18312;51.486;7.144;2023-07-31T03:33:16;16.10;99.90
31733;DHT22;18312;51.486;7.144;2023-07-31T03:35:42;16.10;99.90
31733;DHT22;18312;51.486;7.144;2023-07-31T03:38:09;16.10;99.90
31733;DHT22;18312;51.486;7.144;2023-07-31T03:40:36;16.10;99.90
31733;DHT22;18312;51.486;7.144;2023-07-31T03:43:03;16.10;99.90
31733;DHT22;18312;51.486;7.144;2023-07-31T03:45:31;16.10;99.90
31733;DHT22;18312;51.486;7.144;2023-07-31T03:47:58;16.10;99.90
31733;DHT22;18312;51.486;7.144;2023-07-31T03:50:24;16.20;99.90
31733;DHT22;18312;51.486;7.144;2023-07-31T03:52:52;16.20;99.90
31733;DHT22;18312;51.486;7.144;2023-07-31T03:55:18;16.20;99.90
31733;DHT22;18312;51.486;7.144;2023-07-31T03:57:47;16.20;99.90
31733;DHT22;18312;51.486;7.144;2023-07-31T04:00:14;16.20;99.90
31733;DHT22;18312;51.486;7.144;2023-07-31T04:02:42;16.20;99.90
31733;DHT22;18312;51.486;7.144;2023-07-31T04:05:08;16.20;99.90
31733;DHT22;18312;51.486;7.144;2023-07-31T04:07:36;16.20;99.90
31733;DHT22;18312;51.486;7.144;2023-07-31T04:10:04;16.30;99.90
31733;DHT22;18312;51.486;7.144;2023-07-31T04:12:30;16.30;99.90
31733;DHT22;18312;51.486;7.144;2023-07-31T04:14:57;16.40;99.90
31733;DHT22;18312;51.486;7.144;2023-07-31T04:17:24;16.50;99.90
31733;DHT22;18312;51.486;7.144;2023-07-31T04:19:52;16.40;99.90
31733;DHT22;18312;51.486;7.144;2023-07-31T04:22:18;16.50;99.90
31733;DHT22;18312;51.486;7.144;2023-07-31T04:24:45;16.50;99.90
31733;DHT22;18312;51.486;7.144;2023-07-31T04:27:12;16.60;99.90
31733;DHT22;18312;51.486;7.144;2023-07-31T04:29:39;16.60;99.90
31733;DHT22;18312;51.486;7.144;2023-07-31T04:32:08;16.70;99.90
31733;DHT22;18312;51.486;7.144;2023-07-31T04:34:35;16.70;99.90
31733;DHT22;18312;51.486;7.144;2023-07-31T04:37:08;16.70;99.90
31733;DHT22;18312;51.486;7.144;2023-07-31T04:39:35;16.70;99.90
31733;DHT22;18312;51.486;7.144;2023-07-31T04:42:02;16.70;99.90
31733;DHT22;18312;51.486;7.144;2023-07-31T04:44:30;16.70;99.90
31733;DHT22;18312;51.486;7.144;2023-07-31T04:46:57;16.80;99.90
31733;DHT22;18312;51.486;7.144;2023-07-31T04:49:24;16.80;99.90
31733;DHT22;18312;51.486;7.144;2023-07-31T04:51:51;16.80;99.90
31733;DHT22;18312;51.486;7.144;2023-07-31T04:54:20;16.80;99.90
31733;DHT22;18312;51.486;7.144;2023-07-31T04:56:47;16.80;99.90
31733;DHT22;18312;51.486;7.144;2023-07-31T04:59:14;16.80;99.90
31733;DHT22;18312;51.486;7.144;2023-07-31T05:01:41;16.80;99.90
31733;DHT22;18312;51.486;7.144;2023-07-31T05:04:12;16.90;99.90
31733;DHT22;18312;51.486;7.144;2023-07-31T05:06:39;16.80;99.90
31733;DHT22;18312;51.486;7.144;2023-07-31T05:09:07;16.90;99.90
31733;DHT22;18312;51.486;7.144;2023-07-31T05:11:36;16.90;99.90
31733;DHT22;18312;51.486;7.144;2023-07-31T05:14:03;16.80;99.90
31733;DHT22;18312;51.486;7.144;2023-07-31T05:16:30;16.90;99.90
31733;DHT22;18312;51.486;7.144;2023-07-31T05:18:57;16.90;99.90
31733;DHT22;18312;51.486;7.144;2023-07-31T05:21:26;16.90;99.90
31733;DHT22;18312;51.486;7.144;2023-07-31T05:23:53;17.00;99.90
31733;DHT22;18312;51.486;7.144;2023-07-31T05:26:20;17.00;99.90
31733;DHT22;18312;51.486;7.144;2023-07-31T05:28:49;17.00;99.90
31733;DHT22;18312;51.486;7.144;2023-07-31T05:31:16;17.00;99.90
31733;DHT22;18312;51.486;7.144;2023-07-31T05:33:43;17.00;99.90
31733;DHT22;18312;51.486;7.144;2023-07-31T05:36:10;17.00;99.90
31733;DHT22;18312;51.486;7.144;2023-07-31T05:38:37;17.10;99.90
31733;DHT22;18312;51.486;7.144;2023-07-31T05:41:05;17.10;99.90
31733;DHT22;18312;51.486;7.144;2023-07-31T05:43:32;17.10;99.90
31733;DHT22;18312;51.486;7.144;2023-07-31T05:46:00;17.10;99.90
31733;DHT22;18312;51.486;7.144;2023-07-31T05:48:28;17.10;99.90
31733;DHT22;18312;51.486;7.144;2023-07-31T05:50:55;17.10;99.90
31733;DHT22;18312;51.486;7.144;2023-07-31T05:53:22;17.20;99.90
31733;DHT22;18312;51.486;7.144;2023-07-31T05:55:51;17.20;99.90
31733;DHT22;18312;51.486;7.144;2023-07-31T05:58:18;17.10;99.90
31733;DHT22;18312;51.486;7.144;2023-07-31T06:00:45;17.10;99.90
31733;DHT22;18312;51.486;7.144;2023-07-31T06:03:15;17.10;99.90
31733;DHT22;18312;51.486;7.144;2023-07-31T06:05:41;17.10;99.90
31733;DHT22;18312;51.486;7.144;2023-07-31T06:08:09;17.10;99.90
31733;DHT22;18312;51.486;7.144;2023-07-31T06:10:36;17.00;99.90
31733;DHT22;18312;51.486;7.144;2023-07-31T06:13:04;17.10;99.90
31733;DHT22;18312;51.486;7.144;2023-07-31T06:15:31;17.10;99.90
31733;DHT22;18312;51.486;7.144;2023-07-31T06:17:58;17.10;99.90
31733;DHT22;18312;51.486;7.144;2023-07-31T06:20:29;17.10;99.90
31733;DHT22;18312;51.486;7.144;2023-07-31T06:22:56;17.20;99.90
31733;DHT22;18312;51.486;7.144;2023-07-31T06:25:23;17.20;99.90
31733;DHT22;18312;51.486;7.144;2023-07-31T06:27:50;17.20;99.90
31733;DHT22;18312;51.486;7.144;2023-07-31T06:30:17;17.30;99.90
31733;DHT22;18312;51.486;7.144;2023-07-31T06:32:44;17.30;99.90
31733;DHT22;18312;51.486;7.144;2023-07-31T06:35:12;17.30;99.90
31733;DHT22;18312;51.486;7.144;2023-07-31T06:37:40;17.30;99.90
31733;DHT22;18312;51.486;7.144;2023-07-31T06:40:10;17.30;99.90
31733;DHT22;18312;51.486;7.144;2023-07-31T06:42:38;17.30;99.90
31733;DHT22;18312;51.486;7.144;2023-07-31T06:45:06;17.30;99.90
31733;DHT22;18312;51.486;7.144;2023-07-31T06:47:33;17.30;99.90
31733;DHT22;18312;51.486;7.144;2023-07-31T06:49:59;17.30;99.90
31733;DHT22;18312;51.486;7.144;2023-07-31T06:52:26;17.30;99.90
31733;DHT22;18312;51.486;7.144;2023-07-31T06:55:02;17.30;99.90
31733;DHT22;18312;51.486;7.144;2023-07-31T06:57:30;17.30;99.90
31733;DHT22;18312;51.486;7.144;2023-07-31T06:59:56;17.30;99.90
31733;DHT22;18312;51.486;7.144;2023-07-31T07:02:23;17.30;99.90
31733;DHT22;18312;51.486;7.144;2023-07-31T07:04:50;17.30;99.90
31733;DHT22;18312;51.486;7.144;2023-07-31T07:07:18;17.40;99.90
31733;DHT22;18312;51.486;7.144;2023-07-31T07:09:44;17.40;99.90
31733;DHT22;18312;51.486;7.144;2023-07-31T07:12:12;17.40;99.90
31733;DHT22;18312;51.486;7.144;2023-07-31T07:14:39;17.40;99.90
31733;DHT22;18312;51.486;7.144;2023-07-31T07:17:06;17.30;99.90
31733;DHT22;18312;51.486;7.144;2023-07-31T07:19:32;17.30;99.90
31733;DHT22;18312;51.486;7.144;2023-07-31T07:21:59;17.30;99.90
31733;DHT22;18312;51.486;7.144;2023-07-31T07:24:27;17.30;99.90
31733;DHT22;18312;51.486;7.144;2023-07-31T07:26:54;17.30;99.90
31733;DHT22;18312;51.486;7.144;2023-07-31T07:29:22;17.30;99.90
31733;DHT22;18312;51.486;7.144;2023-07-31T07:31:49;17.30;99.90
31733;DHT22;18312;51.486;7.144;2023-07-31T07:34:15;17.40;99.90
31733;DHT22;18312;51.486;7.144;2023-07-31T07:36:42;17.40;99.90
31733;DHT22;18312;51.486;7.144;2023-07-31T07:39:10;17.40;99.90
31733;DHT22;18312;51.486;7.144;2023-07-31T07:41:36;17.40;99.90
31733;DHT22;18312;51.486;7.144;2023-07-31T07:44:03;17.40;99.90
31733;DHT22;18312;51.486;7.144;2023-07-31T07:46:32;17.40;99.90
31733;DHT22;18312;51.486;7.144;2023-07-31T07:48:58;17.50;99.90
31733;DHT22;18312;51.486;7.144;2023-07-31T07:51:25;17.40;99.90
31733;DHT22;18312;51.486;7.144;2023-07-31T07:53:52;17.40;99.90
31733;DHT22;18312;51.486;7.144;2023-07-31T07:56:19;17.40;99.90
31733;DHT22;18312;51.486;7.144;2023-07-31T07:58:48;17.30;99.90
31733;DHT22;18312;51.486;7.144;2023-07-31T08:01:15;17.30;99.90
31733;DHT22;18312;51.486;7.144;2023-07-31T08:03:43;17.30;99.90
31733;DHT22;18312;51.486;7.144;2023-07-31T08:06:10;17.30;99.90
31733;DHT22;18312;51.486;7.144;2023-07-31T08:08:37;17.30;99.90
31733;DHT22;18312;51.486;7.144;2023-07-31T08:11:04;17.20;99.90
31733;DHT22;18312;51.486;7.144;2023-07-31T08:13:31;17.20;99.90
31733;DHT22;18312;51.486;7.144;2023-07-31T08:15:58;17.20;99.90
31733;DHT22;18312;51.486;7.144;2023-07-31T08:18:25;17.10;99.90
31733;DHT22;18312;51.486;7.144;2023-07-31T08:20:54;17.10;99.90
31733;DHT22;18312;51.486;7.144;2023-07-31T08:23:20;17.20;99.90
31733;DHT22;18312;51.486;7.144;2023-07-31T08:25:47;17.20;99.90
31733;DHT22;18312;51.486;7.144;2023-07-31T08:28:16;17.10;99.90
31733;DHT22;18312;51.486;7.144;2023-07-31T08:30:43;17.20;99.90
31733;DHT22;18312;51.486;7.144;2023-07-31T08:33:10;17.30;99.90
31733;DHT22;18312;51.486;7.144;2023-07-31T08:35:48;17.10;99.90
31733;DHT22;18312;51.486;7.144;2023-07-31T08:38:16;17.10;99.90
31733;DHT22;18312;51.486;7.144;2023-07-31T08:40:43;17.10;99.90
31733;DHT22;18312;51.486;7.144;2023-07-31T08:43:10;17.10;99.90
31733;DHT22;18312;51.486;7.144;2023-07-31T08:45:37;17.20;99.90
31733;DHT22;18312;51.486;7.144;2023-07-31T08:48:05;17.30;99.90
31733;DHT22;18312;51.486;7.144;2023-07-31T08:50:32;17.20;99.90
31733;DHT22;18312;51.486;7.144;2023-07-31T08:52:59;17.30;99.90
31733;DHT22;18312;51.486;7.144;2023-07-31T08:55:27;17.40;99.90
31733;DHT22;18312;51.486;7.144;2023-07-31T08:57:56;17.40;99.90
31733;DHT22;18312;51.486;7.144;2023-07-31T09:00:23;17.40;99.90
31733;DHT22;18312;51.486;7.144;2023-07-31T09:02:56;17.40;99.90
31733;DHT22;18312;51.486;7.144;2023-07-31T09:05:23;17.40;99.90
31733;DHT22;18312;51.486;7.144;2023-07-31T09:07:50;17.40;99.90
31733;DHT22;18312;51.486;7.144;2023-07-31T09:10:17;17.40;99.90
31733;DHT22;18312;51.486;7.144;2023-07-31T09:12:46;17.50;99.90
31733;DHT22;18312;51.486;7.144;2023-07-31T09:15:13;17.50;99.90
31733;DHT22;18312;51.486;7.144;2023-07-31T09:17:40;17.50;99.90
31733;DHT22;18312;51.486;7.144;2023-07-31T09:20:13;17.40;99.90
31733;DHT22;18312;51.486;7.144;2023-07-31T09:22:41;17.30;99.90
31733;DHT22;18312;51.486;7.144;2023-07-31T09:25:14;17.30;99.90
31733;DHT22;18312;51.486;7.144;2023-07-31T09:27:54;17.20;99.90
31733;DHT22;18312;51.486;7.144;2023-07-31T09:30:21;17.20;99.90
31733;DHT22;18312;51.486;7.144;2023-07-31T09:32:50;17.20;99.90
31733;DHT22;18312;51.486;7.144;2023-07-31T09:35:19;17.30;99.90
31733;DHT22;18312;51.486;7.144;2023-07-31T09:37:51;17.40;99.90
31733;DHT22;18312;51.486;7.144;2023-07-31T09:40:28;17.50;99.90
31733;DHT22;18312;51.486;7.144;2023-07-31T09:42:59;17.50;99.90
31733;DHT22;18312;51.486;7.144;2023-07-31T09:45:26;17.60;99.90
31733;DHT22;18312;51.486;7.144;2023-07-31T09:47:53;17.70;99.90
31733;DHT22;18312;51.486;7.144;2023-07-31T09:50:21;17.90;99.90
31733;DHT22;18312;51.486;7.144;2023-07-31T09:52:48;18.00;99.90
31733;DHT22;18312;51.486;7.144;2023-07-31T09:55:15;18.10;99.90
31733;DHT22;18312;51.486;7.144;2023-07-31T09:57:45;18.10;99.90
31733;DHT22;18312;51.486;7.144;2023-07-31T10:00:16;18.00;99.90
31733;DHT22;18312;51.486;7.144;2023-07-31T10:02:45;17.90;99.90
31733;DHT22;18312;51.486;7.144;2023-07-31T10:05:14;17.90;99.90
31733;DHT22;18312;51.486;7.144;2023-07-31T10:07:43;17.90;99.90
31733;DHT22;18312;51.486;7.144;2023-07-31T10:10:10;18.00;99.90
31733;DHT22;18312;51.486;7.144;2023-07-31T10:12:38;17.90;99.90
31733;DHT22;18312;51.486;7.144;2023-07-31T10:15:06;18.10;99.90
31733;DHT22;18312;51.486;7.144;2023-07-31T10:17:35;17.80;99.90
31733;DHT22;18312;51.486;7.144;2023-07-31T10:20:03;17.90;99.90
31733;DHT22;18312;51.486;7.144;2023-07-31T10:22:30;17.90;99.90
31733;DHT22;18312;51.486;7.144;2023-07-31T10:24:58;17.90;99.90
31733;DHT22;18312;51.486;7.144;2023-07-31T10:27:25;17.90;99.90
31733;DHT22;18312;51.486;7.144;2023-07-31T10:29:53;17.90;99.90
31733;DHT22;18312;51.486;7.144;2023-07-31T10:32:21;17.90;99.90
31733;DHT22;18312;51.486;7.144;2023-07-31T10:34:50;17.90;99.90
31733;DHT22;18312;51.486;7.144;2023-07-31T10:37:24;17.90;99.90
31733;DHT22;18312;51.486;7.144;2023-07-31T10:39:59;17.80;99.90
31733;DHT22;18312;51.486;7.144;2023-07-31T10:42:30;17.90;99.90
31733;DHT22;18312;51.486;7.144;2023-07-31T10:44:58;17.80;99.90
31733;DHT22;18312;51.486;7.144;2023-07-31T10:47:26;17.80;99.90
31733;DHT22;18312;51.486;7.144;2023-07-31T10:50:11;17.80;99.90
31733;DHT22;18312;51.486;7.144;2023-07-31T10:52:38;17.70;99.90
31733;DHT22;18312;51.486;7.144;2023-07-31T10:55:28;17.80;99.90
31733;DHT22;18312;51.486;7.144;2023-07-31T10:57:56;17.90;99.90
31733;DHT22;18312;51.486;7.144;2023-07-31T11:00:26;17.90;99.90
31733;DHT22;18312;51.486;7.144;2023-07-31T11:03:00;18.00;99.90
31733;DHT22;18312;51.486;7.144;2023-07-31T11:05:52;18.00;99.90
31733;DHT22;18312;51.486;7.144;2023-07-31T11:08:22;17.90;99.90
31733;DHT22;18312;51.486;7.144;2023-07-31T11:10:51;18.00;99.90
31733;DHT22;18312;51.486;7.144;2023-07-31T11:13:31;18.00;99.90
31733;DHT22;18312;51.486;7.144;2023-07-31T11:15:58;18.00;99.90
31733;DHT22;18312;51.486;7.144;2023-07-31T11:18:26;18.10;99.90
31733;DHT22;18312;51.486;7.144;2023-07-31T11:20:54;18.00;99.90
31733;DHT22;18312;51.486;7.144;2023-07-31T11:23:22;18.20;99.90
31733;DHT22;18312;51.486;7.144;2023-07-31T11:25:49;18.30;99.90
31733;DHT22;18312;51.486;7.144;2023-07-31T11:28:18;18.40;99.90
31733;DHT22;18312;51.486;7.144;2023-07-31T11:30:45;18.40;99.90
31733;DHT22;18312;51.486;7.144;2023-07-31T11:33:13;18.50;99.90
31733;DHT22;18312;51.486;7.144;2023-07-31T11:35:42;18.60;99.90
31733;DHT22;18312;51.486;7.144;2023-07-31T11:38:12;18.70;99.90
31733;DHT22;18312;51.486;7.144;2023-07-31T11:40:41;18.70;99.90
31733;DHT22;18312;51.486;7.144;2023-07-31T11:43:08;18.70;99.90
31733;DHT22;18312;51.486;7.144;2023-07-31T11:45:37;18.70;99.90
31733;DHT22;18312;51.486;7.144;2023-07-31T11:48:04;18.90;99.90
31733;DHT22;18312;51.486;7.144;2023-07-31T11:50:33;19.10;99.90
31733;DHT22;18312;51.486;7.144;2023-07-31T11:53:05;19.30;99.90
31733;DHT22;18312;51.486;7.144;2023-07-31T11:55:35;19.40;99.90
31733;DHT22;18312;51.486;7.144;2023-07-31T11:58:02;19.40;99.90
31733;DHT22;18312;51.486;7.144;2023-07-31T12:00:29;19.40;99.90
31733;DHT22;18312;51.486;7.144;2023-07-31T12:02:56;19.40;99.90
31733;DHT22;18312;51.486;7.144;2023-07-31T12:05:23;19.40;99.90
31733;DHT22;18312;51.486;7.144;2023-07-31T12:07:51;19.60;99.90
31733;DHT22;18312;51.486;7.144;2023-07-31T12:10:29;19.70;99.90
31733;DHT22;18312;51.486;7.144;2023-07-31T12:13:02;19.70;99.90
31733;DHT22;18312;51.486;7.144;2023-07-31T12:15:33;19.80;99.90
31733;DHT22;18312;51.486;7.144;2023-07-31T12:18:01;19.60;99.90
31733;DHT22;18312;51.486;7.144;2023-07-31T12:20:30;19.50;99.90
31733;DHT22;18312;51.486;7.144;2023-07-31T12:22:58;19.50;99.90
31733;DHT22;18312;51.486;7.144;2023-07-31T12:25:29;19.40;99.90
31733;DHT22;18312;51.486;7.144;2023-07-31T12:27:58;19.40;99.90
31733;DHT22;18312;51.486;7.144;2023-07-31T12:30:31;19.30;99.90
31733;DHT22;18312;51.486;7.144;2023-07-31T12:33:02;19.30;99.90
31733;DHT22;18312;51.486;7.144;2023-07-31T12:35:34;19.20;99.90
31733;DHT22;18312;51.486;7.144;2023-07-31T12:38:01;19.20;99.90
31733;DHT22;18312;51.486;7.144;2023-07-31T12:40:28;19.10;99.90
31733;DHT22;18312;51.486;7.144;2023-07-31T12:42:55;19.00;99.90
31733;DHT22;18312;51.486;7.144;2023-07-31T12:45:23;18.90;99.90
31733;DHT22;18312;51.486;7.144;2023-07-31T12:47:50;19.00;99.90
31733;DHT22;18312;51.486;7.144;2023-07-31T12:50:16;19.20;99.90
31733;DHT22;18312;51.486;7.144;2023-07-31T12:52:43;19.20;99.90
31733;DHT22;18312;51.486;7.144;2023-07-31T12:55:10;19.30;99.90
31733;DHT22;18312;51.486;7.144;2023-07-31T12:57:37;19.30;99.90
31733;DHT22;18312;51.486;7.144;2023-07-31T13:00:05;19.30;99.90
31733;DHT22;18312;51.486;7.144;2023-07-31T13:02:33;19.40;99.90
31733;DHT22;18312;51.486;7.144;2023-07-31T13:05:00;19.30;99.90
31733;DHT22;18312;51.486;7.144;2023-07-31T13:07:27;19.20;99.90
31733;DHT22;18312;51.486;7.144;2023-07-31T13:09:53;19.20;99.90
31733;DHT22;18312;51.486;7.144;2023-07-31T13:12:20;19.10;99.90
31733;DHT22;18312;51.486;7.144;2023-07-31T13:14:47;19.20;99.90
31733;DHT22;18312;51.486;7.144;2023-07-31T13:17:13;19.20;99.90
31733;DHT22;18312;51.486;7.144;2023-07-31T13:19:42;19.10;99.90
31733;DHT22;18312;51.486;7.144;2023-07-31T13:22:09;19.10;99.90
31733;DHT22;18312;51.486;7.144;2023-07-31T13:24:36;19.20;99.90
31733;DHT22;18312;51.486;7.144;2023-07-31T13:27:03;19.20;99.90
31733;DHT22;18312;51.486;7.144;2023-07-31T13:29:30;19.20;99.90
31733;DHT22;18312;51.486;7.144;2023-07-31T13:31:57;19.30;99.90
31733;DHT22;18312;51.486;7.144;2023-07-31T13:34:24;19.20;99.90
31733;DHT22;18312;51.486;7.144;2023-07-31T13:36:53;19.20;99.90
31733;DHT22;18312;51.486;7.144;2023-07-31T13:39:20;19.10;99.90
31733;DHT22;18312;51.486;7.144;2023-07-31T13:41:47;19.20;99.90
31733;DHT22;18312;51.486;7.144;2023-07-31T13:44:14;19.10;99.90
31733;DHT22;18312;51.486;7.144;2023-07-31T13:46:41;19.10;99.90
31733;DHT22;18312;51.486;7.144;2023-07-31T13:49:08;19.10;99.90
31733;DHT22;18312;51.486;7.144;2023-07-31T14:12:24;19.50;99.90
31733;DHT22;18312;51.486;7.144;2023-07-31T14:14:53;19.60;99.90
31733;DHT22;18312;51.486;7.144;2023-07-31T14:17:19;19.60;99.90
31733;DHT22;18312;51.486;7.144;2023-07-31T14:19:52;19.80;99.90
31733;DHT22;18312;51.486;7.144;2023-07-31T14:22:27;19.80;99.90
31733;DHT22;18312;51.486;7.144;2023-07-31T14:24:54;20.00;99.90
31733;DHT22;18312;51.486;7.144;2023-07-31T14:27:21;20.10;99.90
31733;DHT22;18312;51.486;7.144;2023-07-31T14:29:49;20.40;99.90
31733;DHT22;18312;51.486;7.144;2023-07-31T14:32:16;20.50;99.90
31733;DHT22;18312;51.486;7.144;2023-07-31T14:34:45;20.60;99.90
31733;DHT22;18312;51.486;7.144;2023-07-31T14:37:11;20.40;99.90
31733;DHT22;18312;51.486;7.144;2023-07-31T14:39:38;20.30;99.90
31733;DHT22;18312;51.486;7.144;2023-07-31T14:42:05;20.00;99.90
31733;DHT22;18312;51.486;7.144;2023-07-31T14:44:32;19.80;99.90
31733;DHT22;18312;51.486;7.144;2023-07-31T14:47:00;19.70;99.90
31733;DHT22;18312;51.486;7.144;2023-07-31T14:49:27;19.70;99.90
31733;DHT22;18312;51.486;7.144;2023-07-31T14:51:54;19.60;99.90
31733;DHT22;18312;51.486;7.144;2023-07-31T14:54:21;19.50;99.90
31733;DHT22;18312;51.486;7.144;2023-07-31T14:56:48;19.50;99.90
31733;DHT22;18312;51.486;7.144;2023-07-31T14:59:15;19.40;99.90
31733;DHT22;18312;51.486;7.144;2023-07-31T15:01:42;19.30;99.90
31733;DHT22;18312;51.486;7.144;2023-07-31T15:04:10;19.30;99.90
31733;DHT22;18312;51.486;7.144;2023-07-31T15:06:37;19.10;99.90
31733;DHT22;18312;51.486;7.144;2023-07-31T15:09:04;19.10;99.90
31733;DHT22;18312;51.486;7.144;2023-07-31T15:11:31;19.00;99.90
31733;DHT22;18312;51.486;7.144;2023-07-31T15:13:57;18.90;99.90
31733;DHT22;18312;51.486;7.144;2023-07-31T15:16:24;18.90;99.90
31733;DHT22;18312;51.486;7.144;2023-07-31T15:18:51;18.90;99.90
31733;DHT22;18312;51.486;7.144;2023-07-31T15:21:19;18.80;99.90
31733;DHT22;18312;51.486;7.144;2023-07-31T15:23:46;18.70;99.90
31733;DHT22;18312;51.486;7.144;2023-07-31T15:26:13;18.70;99.90
31733;DHT22;18312;51.486;7.144;2023-07-31T15:28:39;18.80;99.90
31733;DHT22;18312;51.486;7.144;2023-07-31T15:31:06;18.80;99.90
31733;DHT22;18312;51.486;7.144;2023-07-31T15:33:33;18.90;99.90
31733;DHT22;18312;51.486;7.144;2023-07-31T15:36:00;18.80;99.90
31733;DHT22;18312;51.486;7.144;2023-07-31T15:38:28;18.80;99.90
31733;DHT22;18312;51.486;7.144;2023-07-31T15:40:55;18.80;99.90
31733;DHT22;18312;51.486;7.144;2023-07-31T15:43:21;18.80;99.90
31733;DHT22;18312;51.486;7.144;2023-07-31T15:45:49;18.80;99.90
31733;DHT22;18312;51.486;7.144;2023-07-31T15:48:16;18.70;99.90
31733;DHT22;18312;51.486;7.144;2023-07-31T15:50:43;18.70;99.90
31733;DHT22;18312;51.486;7.144;2023-07-31T15:53:10;18.70;99.90
31733;DHT22;18312;51.486;7.144;2023-07-31T15:55:38;18.70;99.90